CheckWX is a tool to help pilots better visualize weather data.  It is not intended as a substitute for an official pre-flight weather briefing.

22:08:21 UTC

EFTU METAR
Turku Airport
Turku, Finland
Current

18 mins ago

EFTU 202150Z AUTO VRB01KT CAVOK 13/10 Q1016
Observed
Jul-20 @ 21:50 UTC
Wind
  • Variable at 1 KTS
Visibility
10,000+ meters
Flight Rules
VFR
Cloud Levels
  • Clear skies
Temperature
13°C / 55°F
Dewpoint
10°C / 50°F
Humidity
82%
Altimeter
30" Hg
Pressure
1015.92 hPa
Previous

48 mins ago

EFTU 202120Z AUTO VRB01KT CAVOK 14/10 Q1016
Observed
Jul-20 @ 21:20 UTC
Wind
  • Variable at 1 KTS
Visibility
10,000+ meters
Flight Rules
VFR
Cloud Levels
  • Clear skies
Temperature
14°C / 57°F
Dewpoint
10°C / 50°F
Humidity
77%
Altimeter
30" Hg
Pressure
1015.92 hPa
Previous

1 hour ago

EFTU 202050Z AUTO VRB02KT CAVOK 14/10 Q1016
Observed
Jul-20 @ 20:50 UTC
Wind
  • Variable at 2 KTS
Visibility
10,000+ meters
Flight Rules
VFR
Cloud Levels
  • Clear skies
Temperature
14°C / 57°F
Dewpoint
10°C / 50°F
Humidity
77%
Altimeter
30" Hg
Pressure
1015.92 hPa